Airfield :
LOGIN :

Register | Disclaimer

   EN    FR    IT 

 










Legend :    VFR   Marginal VFR   IFR   Intensive IFR   Very Intensive IFR
Visi :
Ceiling :
>= 8 km
>= 3000ft
5 to 8 km
1000 to 3000 ft
1500m to 5 km
500 to 1000 ft
800 to 1500m
200 to 500 ft
< 800m
< 200 ft
Symbols :   Thunderstorms  Fog  Heavy snow  Heavy precipitations  Wind > 20 kt
SIGMETs :     Misc.  Thunderstorms  Icing  Turbulence  Mountain Waves  Volcanic Ashes






- Airport Elevation : 230 ft


ETHB - Buckeburg Army

CURRENT METAR :
  • 221120Z 04003KT 9999 FEW024 BKN036 17/11 Q1016 BLU BLU

EXPIRED METARs :
  • 221020Z 02004KT 9999 FEW022 BKN032 16/10 Q1016 BLU BLU
  • 220920Z 35005KT 9999 SCT020 BKN035 16/10 Q1016 BLU BLU TEMPO WHT

TAF TAF ETHB
Valid from the 22 at 11:00 until the 22 at 20:00 UTC


221000Z 2211/2220 01007KT 9999 NSW SCT015 BKN035



MET'MAP, your aeronautical weather chart ! - Copyright ORBIFLY December 2007 - Disclaimer

ORBIFLY MET'MAP TEAM :

Programming & Development : Alexandra Zaïnal
Concept & original design : Baudouin d'Aumeries
Assistance for programming : Marc-Olivier Méhu
Technical & hardware support : Manuel Goepfert

Contact : metmap@orbifly.com




SOURCES & CREDITS :

   NOAA